Time;durP1;ratioP1;P1;durP2;ratioP2;P2;SDS_P1;SDS_P2;PMS_P1;PMS_P2;Temp;Humidity;BMP_temperature;BMP_pressure;BME280_temperature;BME280_humidity;BME280_pressure;Samples;Min_cycle;Max_cycle;Signal;HPM_P1;HPM_P2
2022/02/21 00:00:32;;;;;;;9.00;2.35;;;;;;;6.55;100.00;97633.72;5051249;28;20037;-77
2022/02/21 00:02:58;;;;;;;11.57;2.47;;;;;;;6.43;100.00;97630.91;5068922;28;20025;-76
2022/02/21 00:05:23;;;;;;;16.23;1.70;;;;;;;6.37;100.00;97637.09;5068516;28;20398;-76
2022/02/21 00:07:49;;;;;;;12.50;1.93;;;;;;;6.31;100.00;97654.63;5052336;28;20107;-76
2022/02/21 00:10:16;;;;;;;9.97;1.87;;;;;;;6.22;100.00;97645.28;5053122;28;20307;-76
2022/02/21 00:12:43;;;;;;;16.20;3.17;;;;;;;6.22;100.00;97640.00;5053323;28;20103;-76
2022/02/21 00:15:09;;;;;;;;;;;;;;;6.19;100.00;97642.25;5052591;28;20040;-76
2022/02/21 00:17:35;;;;;;;11.73;1.80;;;;;;;6.13;100.00;97643.91;5068660;28;19916;-76
2022/02/21 00:20:01;;;;;;;19.08;3.28;;;;;;;6.10;100.00;97653.06;5035012;28;20041;-76
2022/02/21 00:22:26;;;;;;;18.88;3.13;;;;;;;6.03;100.00;97659.41;5052014;28;20120;-76
2022/02/21 00:24:54;;;;;;;13.07;2.53;;;;;;;5.95;100.00;97659.63;5053221;28;20547;-76
2022/02/21 00:27:20;;;;;;;7.30;1.65;;;;;;;5.87;100.00;97669.41;5052992;28;20029;-76
2022/02/21 00:29:47;;;;;;;19.13;4.30;;;;;;;5.82;100.00;97690.41;5053019;28;20033;-76
2022/02/21 00:32:12;;;;;;;16.73;2.10;;;;;;;5.70;100.00;97678.81;5052118;28;20052;-76
2022/02/21 00:34:38;;;;;;;17.45;2.03;;;;;;;5.57;100.00;97695.53;5051919;28;20803;-76
2022/02/21 00:37:03;;;;;;;13.93;2.40;;;;;;;5.49;100.00;97678.00;5051773;28;20383;-77
2022/02/21 00:39:29;;;;;;;10.75;2.25;;;;;;;5.36;100.00;97698.38;5051669;28;20596;-76
2022/02/21 00:41:54;;;;;;;12.85;3.30;;;;;;;5.25;100.00;97682.09;5051927;28;20044;-76
2022/02/21 00:44:20;;;;;;;11.83;2.67;;;;;;;5.23;100.00;97667.44;5051589;28;20036;-76
2022/02/21 00:46:45;;;;;;;6.83;2.00;;;;;;;5.12;100.00;97683.91;5051793;28;20036;-75
2022/02/21 00:49:10;;;;;;;13.10;1.67;;;;;;;5.04;100.00;97679.66;5051361;28;20037;-75
2022/02/21 00:51:36;;;;;;;13.93;1.40;;;;;;;5.01;100.00;97696.75;5053195;28;20547;-76
2022/02/21 00:54:01;;;;;;;6.33;1.10;;;;;;;4.99;100.00;97719.91;5051286;28;20051;-76
2022/02/21 00:56:27;;;;;;;22.83;3.80;;;;;;;4.96;100.00;97691.22;5051570;28;20299;-75
2022/02/21 00:58:52;;;;;;;13.98;1.42;;;;;;;4.91;100.00;97704.22;5051242;28;20043;-75
2022/02/21 01:01:17;;;;;;;7.70;1.63;;;;;;;4.84;100.00;97695.47;5034757;28;20033;-76
2022/02/21 01:03:43;;;;;;;7.20;1.07;;;;;;;4.80;100.00;97686.31;5052198;28;20037;-75
2022/02/21 01:06:08;;;;;;;16.33;1.87;;;;;;;4.76;100.00;97693.03;5051437;28;20114;-76
2022/02/21 01:08:34;;;;;;;6.93;1.27;;;;;;;4.73;100.00;97693.41;5034352;28;20306;-76
2022/02/21 01:10:59;;;;;;;13.90;1.25;;;;;;;4.68;100.00;97707.22;5051267;28;20031;-77
2022/02/21 01:13:25;;;;;;;10.82;2.03;;;;;;;4.70;100.00;97688.53;5050422;28;20448;-76
2022/02/21 01:15:53;;;;;;;6.07;0.90;;;;;;;4.64;100.00;97706.00;5052493;28;20429;-75
2022/02/21 01:18:18;;;;;;;9.80;2.40;;;;;;;4.57;100.00;97698.06;5052349;28;20065;-76
2022/02/21 01:20:44;;;;;;;6.65;0.93;;;;;;;4.54;100.00;97669.41;5050734;28;20021;-76
2022/02/21 01:23:09;;;;;;;6.50;0.90;;;;;;;4.48;100.00;97686.03;5034533;28;20033;-75
2022/02/21 01:25:36;;;;;;;4.72;0.98;;;;;;;4.51;100.00;97682.97;5034294;28;20112;-75
2022/02/21 01:28:01;;;;;;;7.20;1.30;;;;;;;4.49;100.00;97700.84;5052151;28;20545;-75
2022/02/21 01:30:27;;;;;;;;;;;;;;;4.49;100.00;97707.97;5052091;28;20485;-74
2022/02/21 01:32:53;;;;;;;3.40;0.65;;;;;;;4.46;100.00;97688.06;5052016;28;19919;-76
2022/02/21 01:35:18;;;;;;;10.47;1.20;;;;;;;4.41;100.00;97704.50;5033955;28;20025;-75
2022/02/21 01:37:44;;;;;;;9.23;1.67;;;;;;;4.40;100.00;97694.13;5050807;28;20362;-75
2022/02/21 01:40:10;;;;;;;9.27;0.97;;;;;;;4.39;100.00;97703.06;5051890;28;20025;-76
2022/02/21 01:42:36;;;;;;;3.85;0.85;;;;;;;4.29;100.00;97705.25;5034007;28;20280;-76
2022/02/21 01:45:03;;;;;;;3.15;0.60;;;;;;;4.32;100.00;97712.78;5067026;28;20061;-76
2022/02/21 01:47:28;;;;;;;8.43;1.67;;;;;;;4.27;100.00;97704.66;5033727;28;20432;-75
2022/02/21 01:49:54;;;;;;;4.40;0.57;;;;;;;4.23;100.00;97726.16;5051498;28;20144;-76
2022/02/21 01:52:19;;;;;;;4.20;1.30;;;;;;;4.18;100.00;97718.00;5052329;28;20060;-76
2022/02/21 01:54:45;;;;;;;1.07;0.50;;;;;;;4.16;100.00;97725.28;5051641;28;20029;-76
2022/02/21 01:57:11;;;;;;;4.35;0.60;;;;;;;4.16;100.00;97735.84;5034789;28;20267;-76
2022/02/21 01:59:38;;;;;;;2.03;0.50;;;;;;;4.12;100.00;97745.19;5034695;28;20397;-76
2022/02/21 02:02:06;;;;;;;5.03;0.57;;;;;;;4.00;100.00;97752.84;5062655;28;20036;-76
2022/02/21 02:04:32;;;;;;;4.53;0.63;;;;;;;3.98;100.00;97730.25;5051025;28;20044;-75
2022/02/21 02:06:58;;;;;;;;;;;;;;;3.98;100.00;97775.16;5050638;28;20052;-76
2022/02/21 02:09:23;;;;;;;2.92;0.47;;;;;;;3.88;100.00;97758.84;5066653;28;19908;-75
2022/02/21 02:11:50;;;;;;;3.17;0.50;;;;;;;3.77;100.00;97757.56;5050188;28;20037;-75
2022/02/21 02:14:41;;;;;;;5.32;0.35;;;;;;;3.67;100.00;97765.78;5049723;28;20275;-76
2022/02/21 02:17:09;;;;;;;5.20;0.47;;;;;;;3.64;100.00;97773.28;5066666;28;20458;-75
2022/02/21 02:19:36;;;;;;;4.43;0.90;;;;;;;3.62;100.00;97770.81;5049621;28;20470;-75
2022/02/21 02:22:06;;;;;;;1.42;0.50;;;;;;;3.56;100.00;97790.88;5050066;28;20063;-75
2022/02/21 02:24:35;;;;;;;16.38;2.72;;;;;;;3.51;100.00;97789.81;5049391;28;20028;-75
2022/02/21 02:27:00;;;;;;;1.73;0.50;;;;;;;3.44;100.00;97800.31;5049922;28;20029;-75
2022/02/21 02:29:25;;;;;;;1.90;0.57;;;;;;;3.35;100.00;97791.72;5049658;28;20108;-75
2022/02/21 02:31:51;;;;;;;6.23;0.77;;;;;;;3.19;100.00;97794.59;5033323;28;20393;-75
2022/02/21 02:34:16;;;;;;;3.73;0.60;;;;;;;3.05;100.00;97775.19;5049635;28;20112;-76
2022/02/21 02:36:45;;;;;;;9.43;0.73;;;;;;;2.99;100.00;97798.81;5050056;28;20048;-75
2022/02/21 02:39:12;;;;;;;4.82;0.77;;;;;;;2.93;100.00;97803.84;5048857;28;20045;-76
2022/02/21 02:41:38;;;;;;;7.43;0.85;;;;;;;2.93;100.00;97805.66;5066608;28;20016;-76
2022/02/21 02:44:04;;;;;;;3.08;0.60;;;;;;;2.91;100.00;97810.31;5069548;28;20465;-75
2022/02/21 02:46:29;;;;;;;6.95;0.95;;;;;;;2.86;100.00;97802.94;5086419;28;20020;-76
2022/02/21 02:48:54;;;;;;;18.00;2.50;;;;;;;2.88;100.00;97811.50;5071115;28;20040;-75
2022/02/21 02:51:20;;;;;;;11.03;1.30;;;;;;;2.87;100.00;97815.13;5052830;28;20492;-75
2022/02/21 02:53:45;;;;;;;9.47;1.73;;;;;;;2.88;100.00;97824.66;5052926;28;20036;-75
2022/02/21 02:56:10;;;;;;;9.03;1.77;;;;;;;2.92;100.00;97838.28;5069527;28;20134;-75
2022/02/21 02:58:36;;;;;;;4.82;1.50;;;;;;;2.95;100.00;97853.75;5086258;28;20040;-76
2022/02/21 03:01:01;;;;;;;11.03;1.33;;;;;;;2.97;100.00;97862.25;5069660;28;20112;-75
2022/02/21 03:03:27;;;;;;;17.40;3.85;;;;;;;3.03;100.00;97860.72;5069566;28;20065;-75
2022/02/21 03:05:54;;;;;;;10.67;1.10;;;;;;;3.02;100.00;97814.25;5070891;28;20025;-75
2022/02/21 03:08:19;;;;;;;12.98;1.65;;;;;;;3.11;100.00;97873.78;5069263;28;20374;-75
2022/02/21 03:10:44;;;;;;;21.07;2.17;;;;;;;3.12;100.00;97856.97;5069184;28;20060;-75
2022/02/21 03:13:10;;;;;;;21.87;3.83;;;;;;;3.11;100.00;97842.13;5086488;28;20098;-76
2022/02/21 03:15:36;;;;;;;22.88;2.95;;;;;;;3.17;100.00;97842.22;5068804;28;20329;-75
2022/02/21 03:18:01;;;;;;;22.53;3.53;;;;;;;3.25;100.00;97856.28;5085964;28;20028;-75
2022/02/21 03:20:27;;;;;;;22.83;3.33;;;;;;;3.27;100.00;97847.19;5069098;28;20025;-76
2022/02/21 03:22:52;;;;;;;26.13;4.32;;;;;;;3.34;100.00;97848.06;5070271;28;20041;-77
2022/02/21 03:25:17;;;;;;;33.10;4.77;;;;;;;3.34;100.00;97857.81;5068790;28;20028;-76
2022/02/21 03:27:44;;;;;;;22.40;3.60;;;;;;;3.37;100.00;97846.88;5052462;28;20032;-77
2022/02/21 03:30:11;;;;;;;26.75;5.20;;;;;;;3.40;100.00;97857.06;5070561;28;20308;-76
2022/02/21 03:32:36;;;;;;;28.42;4.82;;;;;;;3.48;100.00;97858.75;5056100;28;20043;-78
2022/02/21 03:35:02;;;;;;;35.45;8.82;;;;;;;3.55;100.00;97828.00;5072518;28;20389;-77
2022/02/21 03:37:28;;;;;;;29.00;5.97;;;;;;;3.63;100.00;97864.81;5060558;28;20036;-79
2022/02/21 03:39:53;;;;;;;40.33;6.87;;;;;;;3.65;100.00;97870.69;5061918;28;20111;-77
2022/02/21 03:42:18;;;;;;;38.83;6.03;;;;;;;3.65;100.00;97862.78;5060020;28;20307;-78
2022/02/21 03:44:44;;;;;;;34.80;8.00;;;;;;;3.64;100.00;97869.06;5059195;28;20452;-77
2022/02/21 03:47:09;;;;;;;32.23;7.50;;;;;;;3.65;100.00;97869.88;5059413;28;20039;-76
2022/02/21 03:49:35;;;;;;;42.10;5.50;;;;;;;3.64;100.00;97869.06;5059521;28;20028;-78
2022/02/21 03:52:00;;;;;;;34.77;7.07;;;;;;;3.65;100.00;97886.53;5092947;28;20408;-77
2022/02/21 03:54:25;;;;;;;38.00;7.37;;;;;;;3.63;100.00;97867.47;5059448;28;20593;-76
2022/02/21 03:56:51;;;;;;;41.07;7.43;;;;;;;3.57;100.00;97890.13;5093078;28;20115;-77
2022/02/21 03:59:16;;;;;;;35.53;5.33;;;;;;;3.60;100.00;97894.19;5059606;28;20473;-78
2022/02/21 04:01:41;;;;;;;45.13;7.33;;;;;;;3.54;100.00;97895.78;5059957;28;20374;-78
2022/02/21 04:04:07;;;;;;;31.37;5.17;;;;;;;3.50;100.00;97901.59;5059499;28;20055;-78
2022/02/21 04:06:32;;;;;;;36.20;7.40;;;;;;;3.44;100.00;97884.72;5059284;28;20040;-78
2022/02/21 04:08:58;;;;;;;34.07;4.63;;;;;;;3.41;100.00;97889.53;5058655;28;20032;-78
2022/02/21 04:11:23;;;;;;;21.10;4.10;;;;;;;3.45;100.00;97891.63;5076099;28;20078;-76
2022/02/21 04:13:48;;;;;;;22.93;3.73;;;;;;;3.36;100.00;97877.72;5075347;28;20282;-77
2022/02/21 04:16:14;;;;;;;27.43;4.73;;;;;;;3.42;100.00;97891.16;5058602;28;20036;-77
2022/02/21 04:18:39;;;;;;;27.60;4.13;;;;;;;3.34;100.00;97884.19;5058523;28;20251;-78
2022/02/21 04:21:05;;;;;;;29.90;5.27;;;;;;;3.32;100.00;97894.91;5058591;28;20283;-78
2022/02/21 04:23:30;;;;;;;28.42;6.28;;;;;;;3.32;100.00;97892.28;5058435;28;20021;-81
2022/02/21 04:25:55;;;;;;;26.00;5.57;;;;;;;3.31;100.00;97887.19;5058272;28;20517;-78
2022/02/21 04:28:21;;;;;;;24.13;6.23;;;;;;;3.31;100.00;97890.66;5058488;28;20036;-78
2022/02/21 04:30:46;;;;;;;33.20;4.87;;;;;;;3.30;100.00;97898.75;5074763;28;20037;-78
2022/02/21 04:33:11;;;;;;;24.30;4.55;;;;;;;3.28;100.00;97893.66;5058331;28;20107;-77
2022/02/21 04:35:37;;;;;;;30.83;4.00;;;;;;;3.28;100.00;97875.22;5075242;28;20036;-78
2022/02/21 04:38:03;;;;;;;28.83;5.47;;;;;;;3.21;100.00;97884.88;5059394;28;20302;-78
2022/02/21 04:40:29;;;;;;;28.05;4.93;;;;;;;3.24;100.00;97931.13;5074386;28;20119;-78
2022/02/21 04:42:55;;;;;;;28.30;5.85;;;;;;;3.09;100.00;97933.78;5058224;28;20460;-77
2022/02/21 04:45:21;;;;;;;;;;;;;;;2.84;100.00;97931.44;5056396;28;20024;-77
2022/02/21 04:47:47;;;;;;;18.50;2.58;;;;;;;2.52;100.00;97937.84;5071857;28;19939;-77
2022/02/21 04:50:13;;;;;;;23.63;3.60;;;;;;;2.41;100.00;97954.94;5055834;28;20485;-77
2022/02/21 04:52:40;;;;;;;30.55;4.10;;;;;;;2.34;100.00;97964.50;5057435;28;20404;-78
2022/02/21 04:55:07;;;;;;;21.38;3.28;;;;;;;2.28;100.00;97997.63;5057603;28;20037;-77
2022/02/21 04:57:33;;;;;;;39.60;5.97;;;;;;;2.29;100.00;97985.28;5075989;28;20123;-78
2022/02/21 04:59:58;;;;;;;27.73;5.47;;;;;;;2.31;100.00;97991.19;5056728;28;20029;-77
2022/02/21 05:02:24;;;;;;;26.17;4.00;;;;;;;2.36;100.00;98009.91;5056808;28;20032;-77
2022/02/21 05:04:49;;;;;;;35.30;5.93;;;;;;;2.43;100.00;97992.41;5073321;28;20041;-78
2022/02/21 05:07:14;;;;;;;42.57;7.50;;;;;;;2.41;100.00;97999.69;5056553;28;20310;-77
2022/02/21 05:09:40;;;;;;;29.92;5.10;;;;;;;2.43;100.00;98018.75;5073268;28;20463;-78
2022/02/21 05:12:06;;;;;;;23.17;3.47;;;;;;;2.48;100.00;98011.16;5073244;28;20469;-76
2022/02/21 05:14:31;;;;;;;36.20;6.53;;;;;;;2.45;100.00;98022.03;5056700;28;20037;-78
2022/02/21 05:16:57;;;;;;;34.13;5.60;;;;;;;2.52;100.00;98028.22;5057383;28;20024;-78
2022/02/21 05:19:22;;;;;;;38.63;5.63;;;;;;;2.57;100.00;98030.31;5056942;28;20037;-77
2022/02/21 05:21:48;;;;;;;35.58;7.38;;;;;;;2.60;100.00;98029.97;5073703;28;20063;-76
2022/02/21 05:24:13;;;;;;;33.63;5.10;;;;;;;2.61;100.00;98026.34;5075113;28;20517;-78
2022/02/21 05:26:40;;;;;;;48.60;6.50;;;;;;;2.64;100.00;98035.69;5073414;28;20021;-78
2022/02/21 05:29:06;;;;;;;32.13;6.50;;;;;;;2.73;100.00;98034.63;5056536;28;20048;-78
2022/02/21 05:31:31;;;;;;;31.67;6.32;;;;;;;2.81;100.00;98044.28;5058864;28;20029;-78
2022/02/21 05:33:57;;;;;;;41.85;6.80;;;;;;;2.90;100.00;98035.28;5056769;28;20093;-77
2022/02/21 05:36:22;;;;;;;34.37;8.63;;;;;;;2.94;100.00;98037.38;5056281;28;20473;-77
2022/02/21 05:38:48;;;;;;;35.33;4.68;;;;;;;2.90;100.00;98033.50;5074320;28;20719;-78
2022/02/21 05:41:13;;;;;;;30.20;4.97;;;;;;;2.89;100.00;98017.84;5056450;28;20497;-77
2022/02/21 05:43:38;;;;;;;28.43;5.90;;;;;;;2.93;100.00;98021.78;5072695;28;20402;-77
2022/02/21 05:46:04;;;;;;;25.83;3.40;;;;;;;2.96;100.00;98005.59;5055919;28;20046;-77
2022/02/21 05:48:30;;;;;;;33.83;5.18;;;;;;;2.94;100.00;97989.13;5056607;28;20032;-77
2022/02/21 05:50:55;;;;;;;24.07;6.17;;;;;;;3.01;100.00;97978.69;5056684;28;20035;-77
2022/02/21 05:53:21;;;;;;;23.90;4.63;;;;;;;2.93;100.00;97977.78;5073471;28;20485;-77
2022/02/21 05:55:46;;;;;;;26.93;6.33;;;;;;;2.89;100.00;97968.59;5056513;28;20117;-78
2022/02/21 05:58:13;;;;;;;21.03;4.63;;;;;;;2.85;100.00;97993.66;5073816;28;20036;-78
2022/02/21 06:00:38;;;;;;;19.92;4.22;;;;;;;2.80;100.00;97979.41;5072713;28;20043;-77
2022/02/21 06:03:03;;;;;;;23.17;2.78;;;;;;;2.74;100.00;97968.59;5056311;28;20040;-77
2022/02/21 06:05:29;;;;;;;24.57;4.90;;;;;;;2.62;100.00;97982.38;5056182;28;20116;-78
2022/02/21 06:07:54;;;;;;;23.63;4.20;;;;;;;2.53;100.00;97976.38;5072771;28;20291;-78
2022/02/21 06:10:20;;;;;;;25.60;5.33;;;;;;;2.47;100.00;97977.91;5072187;28;20107;-77
2022/02/21 06:12:45;;;;;;;18.53;3.67;;;;;;;2.43;100.00;97986.31;5054852;28;20275;-78
2022/02/21 06:15:11;;;;;;;19.73;4.17;;;;;;;2.40;100.00;97978.78;5054778;28;20473;-77
2022/02/21 06:17:37;;;;;;;18.63;4.32;;;;;;;2.47;100.00;97982.34;5070847;28;20043;-77
2022/02/21 06:20:03;;;;;;;16.38;2.83;;;;;;;2.49;100.00;97975.09;5053447;28;20111;-76
2022/02/21 06:22:29;;;;;;;21.48;3.95;;;;;;;2.56;100.00;97991.00;5086688;28;20036;-77
2022/02/21 06:24:54;;;;;;;15.30;3.70;;;;;;;2.58;100.00;97981.13;5053058;28;20047;-76
2022/02/21 06:27:19;;;;;;;26.70;5.27;;;;;;;2.62;100.00;97987.63;5053171;28;20476;-76
2022/02/21 06:29:45;;;;;;;32.73;6.13;;;;;;;2.59;100.00;97998.53;5071343;28;20041;-76
2022/02/21 06:32:10;;;;;;;30.17;6.30;;;;;;;2.63;100.00;97981.38;5052904;28;20032;-76
2022/02/21 06:34:35;;;;;;;23.70;4.07;;;;;;;2.57;100.00;97979.47;5070910;28;20310;-76
2022/02/21 06:37:01;;;;;;;24.97;4.43;;;;;;;2.65;100.00;97984.66;5069720;28;20373;-75
2022/02/21 06:39:26;;;;;;;22.93;4.20;;;;;;;2.63;100.00;97981.38;5052427;28;20028;-75
2022/02/21 06:41:51;;;;;;;30.50;5.23;;;;;;;2.68;100.00;97994.84;5086489;28;20113;-75
2022/02/21 06:44:17;;;;;;;20.43;3.47;;;;;;;2.72;100.00;98001.41;5069213;28;20039;-75
2022/02/21 06:46:44;;;;;;;20.17;3.97;;;;;;;2.72;100.00;98009.28;5070817;28;20295;-75
2022/02/21 06:49:10;;;;;;;21.50;3.50;;;;;;;2.74;100.00;98018.66;5052398;28;20024;-75
2022/02/21 06:51:36;;;;;;;19.42;3.72;;;;;;;2.79;100.00;98015.47;5052790;28;20029;-76
2022/02/21 06:54:03;;;;;;;21.17;3.67;;;;;;;2.77;100.00;98024.56;5069042;28;20508;-75
2022/02/21 06:56:29;;;;;;;22.95;4.20;;;;;;;2.75;100.00;98030.81;5069439;28;20115;-75
2022/02/21 06:58:54;;;;;;;22.65;4.13;;;;;;;2.74;100.00;98018.66;5070472;28;20139;-75
2022/02/21 07:01:19;;;;;;;23.90;3.80;;;;;;;2.74;100.00;98033.66;5070534;28;20032;-75
2022/02/21 07:03:45;;;;;;;31.37;3.97;;;;;;;2.75;100.00;98032.63;5069351;28;20060;-75
2022/02/21 07:06:10;;;;;;;29.90;6.33;;;;;;;2.86;100.00;98039.31;5070585;28;20306;-75
2022/02/21 07:08:36;;;;;;;20.58;5.55;;;;;;;2.95;100.00;98032.97;5052252;28;20032;-75
2022/02/21 07:11:01;;;;;;;15.40;4.13;;;;;;;3.03;100.00;98055.78;5069893;28;20107;-75
2022/02/21 07:13:27;;;;;;;25.02;4.50;;;;;;;3.06;100.00;98040.41;5072993;28;20949;-75
2022/02/21 07:15:52;;;;;;;19.13;3.22;;;;;;;3.07;100.00;98030.69;5074063;28;20489;-75
2022/02/21 07:18:18;;;;;;;22.38;4.38;;;;;;;3.11;100.00;98032.78;5073170;28;20028;-75
2022/02/21 07:20:43;;;;;;;18.60;5.82;;;;;;;3.24;99.34;98020.78;5072679;28;20028;-75
2022/02/21 07:23:08;;;;;;;13.83;2.47;;;;;;;3.23;98.63;98014.69;5072881;28;20406;-75
2022/02/21 07:25:34;;;;;;;15.48;2.53;;;;;;;3.12;97.49;97989.59;5089647;28;20058;-74
2022/02/21 07:27:59;;;;;;;16.73;3.63;;;;;;;3.11;96.34;97981.84;5073869;28;20028;-75
2022/02/21 07:30:30;;;;;;;22.87;2.83;;;;;;;3.09;96.02;97971.53;5072219;28;20039;-75
2022/02/21 07:32:56;;;;;;;12.95;2.10;;;;;;;3.16;96.27;97998.78;5072548;28;20341;-75
2022/02/21 07:35:21;;;;;;;10.05;2.67;;;;;;;3.23;96.03;98016.50;5056243;28;20025;-75
2022/02/21 07:37:47;;;;;;;11.88;2.40;;;;;;;3.01;95.80;98008.50;5056021;28;20059;-75
2022/02/21 07:40:13;;;;;;;9.57;2.35;;;;;;;2.52;97.79;98054.56;5072572;28;20020;-76
2022/02/21 07:42:42;;;;;;;3.67;1.23;;;;;;;2.17;100.00;98089.38;5073715;28;20086;-75
2022/02/21 07:45:09;;;;;;;6.18;1.42;;;;;;;2.05;100.00;98138.94;5056122;28;20021;-76
2022/02/21 07:48:02;;;;;;;6.82;0.82;;;;;;;1.80;100.00;98138.22;5072685;28;20066;-76
2022/02/21 07:50:30;;;;;;;4.00;0.65;;;;;;;1.79;100.00;98178.69;5073445;28;20036;-76
2022/02/21 07:52:59;;;;;;;7.93;0.88;;;;;;;1.75;100.00;98190.53;5072206;28;20024;-75
2022/02/21 07:55:26;;;;;;;5.63;0.70;;;;;;;1.73;100.00;98190.69;5072179;28;20468;-75
2022/02/21 07:57:51;;;;;;;;;;;;;;;1.75;100.00;98196.59;5072731;28;20564;-75
2022/02/21 08:00:17;;;;;;;7.10;0.65;;;;;;;1.73;100.00;98211.72;5073234;28;20006;-76
2022/02/21 08:02:43;;;;;;;;;;;;;;;1.72;100.00;98214.56;5073819;28;20029;-76
2022/02/21 08:05:09;;;;;;;7.15;1.20;;;;;;;1.68;100.00;98225.38;5055301;28;20327;-75
2022/02/21 08:07:35;;;;;;;10.27;1.30;;;;;;;1.64;100.00;98223.28;5072051;28;20115;-75
2022/02/21 08:10:01;;;;;;;;;;;;;;;1.66;100.00;98239.69;5073489;28;20028;-76
2022/02/21 08:12:27;;;;;;;11.45;1.27;;;;;;;1.71;100.00;98245.31;5072019;28;20361;-75
2022/02/21 08:14:52;;;;;;;12.35;2.40;;;;;;;1.76;100.00;98258.78;5072962;28;20127;-76
2022/02/21 08:17:18;;;;;;;12.63;2.25;;;;;;;2.00;100.00;98257.88;5072314;28;20064;-76
2022/02/21 08:19:43;;;;;;;17.52;2.90;;;;;;;2.20;100.00;98260.97;5055063;28;20035;-76
2022/02/21 08:22:09;;;;;;;10.10;2.33;;;;;;;2.58;100.00;98266.41;5071340;28;20020;-76
2022/02/21 08:24:35;;;;;;;9.68;2.72;;;;;;;2.71;100.00;98273.75;5071828;28;20408;-76
2022/02/21 08:27:01;;;;;;;11.82;2.72;;;;;;;2.49;100.00;98270.06;5071997;28;20028;-76
2022/02/21 08:29:26;;;;;;;;;;;;;;;2.21;100.00;98262.59;5071966;28;20397;-75
2022/02/21 08:31:54;;;;;;;20.33;2.78;;;;;;;2.11;100.00;98272.50;5054862;28;19915;-76
2022/02/21 08:34:20;;;;;;;26.10;3.45;;;;;;;2.02;100.00;98269.06;5054798;28;20032;-77
2022/02/21 08:36:45;;;;;;;12.73;2.97;;;;;;;1.84;100.00;98260.56;5072973;28;20019;-76
2022/02/21 08:39:10;;;;;;;20.20;3.00;;;;;;;1.85;100.00;98256.91;5071840;28;20475;-77
2022/02/21 08:41:36;;;;;;;15.43;4.18;;;;;;;1.89;100.00;98281.91;5072160;28;20275;-76
2022/02/21 08:44:01;;;;;;;19.25;3.28;;;;;;;2.11;100.00;98293.56;5055031;28;20386;-77
2022/02/21 08:46:27;;;;;;;23.50;2.42;;;;;;;2.25;100.00;98292.88;5054797;28;20115;-76
2022/02/21 08:48:54;;;;;;;17.08;3.00;;;;;;;2.33;100.00;98307.81;5072802;28;20063;-77
2022/02/21 08:51:20;;;;;;;10.60;1.88;;;;;;;2.41;100.00;98320.13;5055466;28;20033;-77
2022/02/21 08:53:45;;;;;;;28.95;4.25;;;;;;;2.56;100.00;98323.72;5072394;28;20062;-77
2022/02/21 08:56:11;;;;;;;13.38;1.88;;;;;;;2.69;100.00;98339.81;5072723;28;20020;-77
2022/02/21 08:58:36;;;;;;;15.83;2.80;;;;;;;2.72;100.00;98328.91;5055188;28;20066;-77
2022/02/21 09:01:02;;;;;;;26.53;3.13;;;;;;;2.64;100.00;98321.03;5073743;28;20024;-77
2022/02/21 09:03:28;;;;;;;15.32;2.58;;;;;;;2.53;100.00;98322.25;5072646;28;20033;-77
2022/02/21 09:05:53;;;;;;;27.45;4.50;;;;;;;2.47;100.00;98319.47;5071864;28;20063;-77
2022/02/21 09:08:19;;;;;;;15.63;1.98;;;;;;;2.32;100.00;98340.41;5054535;28;20094;-76
2022/02/21 09:10:45;;;;;;;13.00;2.70;;;;;;;2.73;100.00;98363.97;5054193;28;20025;-77
2022/02/21 09:13:11;;;;;;;;;;;;;;;3.38;100.00;98376.03;5078999;22;20064;-85
2022/02/21 09:15:37;;;;;;;5.32;1.63;;;;;;;3.07;100.00;98365.50;5004134;28;19921;-85
2022/02/21 09:18:04;;;;;;;2.72;1.30;;;;;;;2.84;100.00;98355.69;5015143;28;20448;-84
2022/02/21 09:20:30;;;;;;;3.88;0.77;;;;;;;2.52;100.00;98354.00;4998512;28;20036;-85
2022/02/21 09:22:56;;;;;;;7.63;1.20;;;;;;;2.29;100.00;98352.09;4998824;28;20702;-85
2022/02/21 09:25:22;;;;;;;7.57;1.63;;;;;;;2.03;100.00;98352.28;5014867;28;20026;-85
2022/02/21 09:27:47;;;;;;;2.33;0.47;;;;;;;1.71;100.00;98341.78;5015230;28;20338;-85
2022/02/21 09:30:13;;;;;;;7.78;1.17;;;;;;;1.64;100.00;98358.25;5014731;28;20080;-86
2022/02/21 09:32:40;;;;;;;5.35;1.38;;;;;;;1.53;100.00;98361.19;4998801;28;20060;-86
2022/02/21 09:35:06;;;;;;;2.80;1.08;;;;;;;1.34;100.00;98366.75;5014118;28;20124;-86
2022/02/21 09:37:32;;;;;;;2.25;1.23;;;;;;;1.33;100.00;98388.75;5014860;28;20037;-86
2022/02/21 09:39:58;;;;;;;;;;;;;;;1.36;100.00;98398.94;4998750;28;20026;-85
2022/02/21 09:42:23;;;;;;;49.17;21.67;;;;;;;1.31;100.00;98411.75;5015007;28;19912;-85
2022/02/21 09:44:49;;;;;;;62.33;25.13;;;;;;;1.10;100.00;98405.16;4998506;28;20064;-87
2022/02/21 09:47:18;;;;;;;21.27;9.25;;;;;;;1.03;100.00;98410.22;4998690;28;20042;-87
2022/02/21 09:49:43;;;;;;;8.02;4.28;;;;;;;1.00;100.00;98405.25;4998693;28;20032;-90
2022/02/21 09:52:09;;;;;;;4.18;2.30;;;;;;;1.27;100.00;98421.78;5015113;28;20128;-85
2022/02/21 09:54:43;;;;;;;11.68;5.45;;;;;;;1.50;100.00;98432.53;5014907;28;20565;-86
2022/02/21 09:57:09;;;;;;;5.60;2.28;;;;;;;1.25;100.00;98439.50;4998718;28;20132;-87
2022/02/21 09:59:35;;;;;;;7.80;2.72;;;;;;;0.95;100.00;98454.81;4998474;28;20037;-87
2022/02/21 10:02:01;;;;;;;7.63;3.80;;;;;;;0.75;100.00;98449.00;5014873;28;20049;-88
2022/02/21 10:04:27;;;;;;;3.08;1.35;;;;;;;0.54;100.00;98456.41;5014591;28;20035;-88
2022/02/21 10:06:55;;;;;;;5.90;3.75;;;;;;;0.40;100.00;98456.00;5013664;28;20440;-90
2022/02/21 10:09:24;;;;;;;6.47;2.90;;;;;;;0.26;100.00;98459.19;5030501;28;20053;-88
2022/02/21 10:11:50;;;;;;;3.83;1.00;;;;;;;0.23;100.00;98464.72;4997871;28;20374;-89
2022/02/21 10:14:21;;;;;;;2.47;1.60;;;;;;;0.22;100.00;98483.25;4997662;28;20053;-88
2022/02/21 10:16:53;;;;;;;4.07;0.70;;;;;;;0.30;100.00;98488.56;5030687;28;20512;-88
2022/02/21 10:19:24;;;;;;;2.13;0.47;;;;;;;0.51;100.00;98482.97;5014039;28;20620;-87
2022/02/21 10:22:02;;;;;;;1.50;1.05;;;;;;;0.40;100.00;98486.69;5014260;28;20037;-88
2022/02/21 10:24:36;;;;;;;2.25;0.85;;;;;;;0.40;100.00;98487.50;5030501;28;20072;-87
2022/02/21 10:27:20;;;;;;;1.23;0.50;;;;;;;0.41;100.00;98478.63;4997825;28;20037;-85
2022/02/21 10:29:51;;;;;;;0.57;0.30;;;;;;;0.33;100.00;98485.66;5014512;28;20033;-87
2022/02/21 10:32:24;;;;;;;0.85;0.43;;;;;;;0.17;100.00;98487.16;5014355;28;20042;-87
2022/02/21 10:34:51;;;;;;;3.97;0.40;;;;;;;0.23;100.00;98500.63;5014237;28;20033;-86
2022/02/21 10:37:28;;;;;;;0.55;0.20;;;;;;;0.24;100.00;98518.88;4997856;28;20068;-86
2022/02/21 10:40:27;;;;;;;3.42;2.08;;;;;;;0.32;100.00;98536.47;5014164;28;20044;-86
2022/02/21 10:43:06;;;;;;;2.17;0.57;;;;;;;0.34;100.00;98537.97;4983445;28;20079;-85
2022/02/21 10:45:32;;;;;;;0.40;0.40;;;;;;;0.19;100.00;98531.63;5015687;28;20037;-86
2022/02/21 10:47:59;;;;;;;1.83;0.20;;;;;;;0.18;100.00;98532.59;5001904;28;20036;-87
2022/02/21 10:50:25;;;;;;;0.90;0.63;;;;;;;0.16;100.00;98535.38;5001504;28;20043;-87
2022/02/21 10:52:51;;;;;;;3.58;1.70;;;;;;;0.26;100.00;98535.28;5001783;28;20393;-85
2022/02/21 10:55:16;;;;;;;1.85;0.55;;;;;;;0.35;100.00;98539.63;5018087;28;20041;-85
2022/02/21 10:57:45;;;;;;;2.03;0.50;;;;;;;0.53;100.00;98546.66;5018017;28;20396;-86
2022/02/21 11:00:12;;;;;;;1.80;1.42;;;;;;;0.67;100.00;98545.28;5035620;28;20038;-85
2022/02/21 11:02:39;;;;;;;;;;;;;;;0.97;100.00;98554.53;5001806;28;20116;-86
2022/02/21 11:05:07;;;;;;;2.25;0.80;;;;;;;1.05;100.00;98550.16;5001426;28;19913;-87
2022/02/21 11:07:34;;;;;;;2.40;0.77;;;;;;;1.07;100.00;98557.88;5034203;28;20032;-88
2022/02/21 11:10:01;;;;;;;2.53;1.15;;;;;;;1.37;100.00;98556.53;5017549;28;20033;-87
2022/02/21 11:12:32;;;;;;;4.40;1.13;;;;;;;1.51;100.00;98559.56;5001574;28;20025;-86
2022/02/21 11:15:00;;;;;;;4.68;1.05;;;;;;;1.48;100.00;98560.72;5001205;28;20044;-87
2022/02/21 11:17:26;;;;;;;3.83;1.10;;;;;;;1.78;100.00;98571.66;5001226;28;20053;-86
2022/02/21 11:19:52;;;;;;;;;;;;;;;1.51;100.00;98557.75;5017873;28;20037;-87
2022/02/21 11:22:18;;;;;;;9.07;2.00;;;;;;;1.30;100.00;98545.00;5001099;28;19915;-86
2022/02/21 11:24:48;;;;;;;6.78;1.33;;;;;;;1.13;100.00;98559.88;5017240;28;20040;-86
2022/02/21 11:27:32;;;;;;;10.60;2.20;;;;;;;1.06;100.00;98561.47;5000810;28;20034;-87